METAR Data
IDs: Format: Raw Decoded Include TAF

Data at: 0106 UTC 20 Jul 2019

METAR for:KCIN (Carroll/Neu Arpt, IA, US)
Text:KCIN 200055Z AUTO 21011G17KT 10SM CLR 31/26 A2971 RMK AO2
Temperature: 31.0°C ( 88°F)
Dewpoint: 26.0°C ( 79°F) [RH = 75%]
Pressure (altimeter):29.71 inches Hg (1006.2 mb)
Winds:from the SSW (210 degrees) at 13 MPH (11 knots; 5.7 m/s) gusting to 20 MPH (17 knots; 8.7 m/s)
Visibility:10 or more sm (16+ km)
Ceiling:at least 12,000 feet AGL
Clouds:sky clear below 12,000 feet AGL
QC Flag:automated observation with no human augmentation